createdAt,value
2019-02-17T00:00:50.578Z,9.20
2019-02-17T00:01:54.746Z,9.20
2019-02-17T00:02:58.831Z,9.20
2019-02-17T00:04:02.954Z,9.20
2019-02-17T00:05:07.181Z,9.20
2019-02-17T00:06:11.527Z,9.20
2019-02-17T00:07:15.625Z,9.20
2019-02-17T00:08:19.730Z,9.20
2019-02-17T00:09:23.834Z,9.10
2019-02-17T00:10:27.940Z,9.10
2019-02-17T00:11:32.039Z,9.20
2019-02-17T00:12:36.267Z,9.10
2019-02-17T00:13:40.371Z,9.10
2019-02-17T00:14:44.675Z,9.10
2019-02-17T00:15:48.851Z,9.20
2019-02-17T00:16:53.225Z,9.20
2019-02-17T00:17:57.316Z,9.20
2019-02-17T00:19:01.443Z,9.20
2019-02-17T00:20:07.974Z,9.30
2019-02-17T00:21:11.692Z,9.30
2019-02-17T00:22:15.805Z,9.30
2019-02-17T00:23:19.905Z,9.30
2019-02-17T00:24:24.383Z,9.30
2019-02-17T00:25:29.018Z,9.30
2019-02-17T00:26:33.698Z,9.30
2019-02-17T00:27:37.787Z,9.30
2019-02-17T00:28:41.891Z,9.30
2019-02-17T00:29:46.019Z,9.30
2019-02-17T00:30:50.131Z,9.30
2019-02-17T00:31:54.271Z,9.30
2019-02-17T00:32:58.363Z,9.30
2019-02-17T00:34:02.505Z,9.30
2019-02-17T00:35:06.692Z,9.30
2019-02-17T00:36:11.088Z,9.30
2019-02-17T00:37:15.204Z,9.30
2019-02-17T00:38:19.402Z,9.30
2019-02-17T00:39:23.518Z,9.30
2019-02-17T00:40:27.724Z,9.30
2019-02-17T00:41:31.816Z,9.30
2019-02-17T00:42:36.225Z,9.30
2019-02-17T00:43:40.425Z,9.30
2019-02-17T00:44:44.578Z,9.30
2019-02-17T00:45:48.736Z,9.30
2019-02-17T00:46:52.841Z,9.30
2019-02-17T00:47:57.007Z,9.30
2019-02-17T00:49:01.159Z,9.30
2019-02-17T00:50:05.640Z,9.30
2019-02-17T00:51:10.672Z,9.30
2019-02-17T00:52:14.792Z,9.30
2019-02-17T00:53:18.994Z,9.30
2019-02-17T00:54:23.096Z,9.30
2019-02-17T00:55:27.214Z,9.30
2019-02-17T00:56:31.357Z,9.30
2019-02-17T00:57:35.455Z,9.30
2019-02-17T00:58:39.544Z,9.30
2019-02-17T00:59:43.659Z,9.30
2019-02-17T01:00:47.780Z,9.30
2019-02-17T01:01:51.927Z,9.30
2019-02-17T01:02:56.031Z,9.30
2019-02-17T01:04:00.131Z,9.30
2019-02-17T01:05:04.309Z,9.30
2019-02-17T01:06:08.820Z,9.30
2019-02-17T01:07:13.020Z,9.30
2019-02-17T01:08:17.119Z,9.30
2019-02-17T01:09:21.203Z,9.30
2019-02-17T01:10:25.439Z,9.30
2019-02-17T01:11:29.627Z,9.30
2019-02-17T01:12:33.756Z,9.30
2019-02-17T01:13:37.866Z,9.30
2019-02-17T01:14:41.967Z,9.30
2019-02-17T01:15:46.201Z,9.20
2019-02-17T01:16:50.303Z,9.20
2019-02-17T01:17:54.487Z,9.20
2019-02-17T01:18:58.593Z,9.20
2019-02-17T01:20:02.740Z,9.20
2019-02-17T01:21:06.838Z,9.10
2019-02-17T01:22:11.199Z,9.10
2019-02-17T01:23:15.423Z,9.20
2019-02-17T01:24:19.541Z,9.20
2019-02-17T01:25:23.708Z,9.10
2019-02-17T01:26:27.827Z,9.10
2019-02-17T01:27:31.940Z,9.10
2019-02-17T01:28:36.317Z,9.10
2019-02-17T01:29:40.514Z,9.10
2019-02-17T01:30:44.654Z,9.20
2019-02-17T01:31:48.752Z,9.10
2019-02-17T01:32:52.847Z,9.10
2019-02-17T01:33:56.955Z,9.10
2019-02-17T01:35:01.072Z,9.10
2019-02-17T01:36:05.244Z,9.10
2019-02-17T01:37:10.307Z,9.10
2019-02-17T01:38:14.399Z,9.10
2019-02-17T01:39:18.603Z,9.10
2019-02-17T01:40:22.739Z,9.00
2019-02-17T01:41:26.936Z,9.00
2019-02-17T01:42:31.089Z,9.00
2019-02-17T01:43:35.486Z,9.00
2019-02-17T01:44:39.640Z,9.00
2019-02-17T01:45:43.736Z,9.00
2019-02-17T01:46:47.890Z,9.00
2019-02-17T01:47:52.059Z,9.00
2019-02-17T01:48:56.193Z,8.90
2019-02-17T01:50:00.415Z,8.90
2019-02-17T01:51:04.500Z,8.90
2019-02-17T01:52:09.563Z,8.90
2019-02-17T01:53:13.660Z,8.90
2019-02-17T01:54:17.825Z,8.90
2019-02-17T01:55:22.137Z,8.90
2019-02-17T01:56:26.319Z,8.90
2019-02-17T01:57:30.439Z,8.90
2019-02-17T01:58:34.553Z,8.90
2019-02-17T01:59:38.675Z,8.90
2019-02-17T02:00:42.812Z,8.90
2019-02-17T02:01:46.923Z,8.90
2019-02-17T02:02:51.083Z,8.90
2019-02-17T02:03:55.192Z,8.90
2019-02-17T02:04:59.435Z,8.90
2019-02-17T02:06:03.544Z,8.90
2019-02-17T02:07:07.800Z,8.80
2019-02-17T02:08:12.459Z,8.80
2019-02-17T02:09:16.595Z,8.80
2019-02-17T02:10:20.735Z,8.80
2019-02-17T02:11:24.851Z,8.70
2019-02-17T02:12:28.943Z,8.70
2019-02-17T02:13:33.146Z,8.70
2019-02-17T02:14:37.243Z,8.70
2019-02-17T02:15:41.370Z,8.70
2019-02-17T02:16:45.454Z,8.60
2019-02-17T02:17:49.553Z,8.60
2019-02-17T02:18:53.664Z,8.60
2019-02-17T02:19:57.777Z,8.60
2019-02-17T02:21:01.919Z,8.60
2019-02-17T02:22:06.012Z,8.60
2019-02-17T02:23:10.274Z,8.60
2019-02-17T02:24:15.497Z,8.70
2019-02-17T02:25:19.596Z,8.70
2019-02-17T02:26:23.794Z,8.60
2019-02-17T02:27:27.902Z,8.70
2019-02-17T02:28:32.063Z,8.70
2019-02-17T02:29:40.951Z,8.60
2019-02-17T02:30:42.356Z,8.60
2019-02-17T02:31:46.536Z,8.60
2019-02-17T02:32:50.623Z,8.60
2019-02-17T02:33:54.737Z,8.60
2019-02-17T02:34:58.832Z,8.70
2019-02-17T02:36:02.988Z,8.70
2019-02-17T02:37:07.449Z,8.70
2019-02-17T02:38:13.579Z,8.70
2019-02-17T02:39:17.803Z,8.70
2019-02-17T02:40:22.301Z,8.70
2019-02-17T02:41:34.386Z,8.70
2019-02-17T02:42:32.300Z,8.70
2019-02-17T02:43:36.462Z,8.60
2019-02-17T02:44:40.639Z,8.70
2019-02-17T02:45:44.728Z,8.60
2019-02-17T02:46:48.852Z,8.60
2019-02-17T02:47:52.951Z,8.60
2019-02-17T02:48:57.058Z,8.60
2019-02-17T02:50:01.148Z,8.60
2019-02-17T02:51:05.334Z,8.60
2019-02-17T02:52:09.987Z,8.60
2019-02-17T02:53:14.087Z,8.60
2019-02-17T02:54:18.187Z,8.60
2019-02-17T02:55:22.294Z,8.60
2019-02-17T02:56:26.432Z,8.60
2019-02-17T02:57:30.618Z,8.50
2019-02-17T02:58:34.738Z,8.50
2019-02-17T02:59:38.852Z,8.50
2019-02-17T03:00:42.967Z,8.50
2019-02-17T03:01:47.151Z,8.50
2019-02-17T03:02:51.336Z,8.50
2019-02-17T03:03:55.764Z,8.50
2019-02-17T03:04:59.944Z,8.50
2019-02-17T03:06:10.387Z,8.50
2019-02-17T03:07:17.499Z,8.50
2019-02-17T03:08:21.700Z,8.50
2019-02-17T03:09:26.053Z,8.50
2019-02-17T03:10:30.440Z,8.50
2019-02-17T03:11:34.593Z,8.50
2019-02-17T03:12:38.698Z,8.50
2019-02-17T03:13:42.905Z,8.50
2019-02-17T03:14:47.101Z,8.50
2019-02-17T03:15:51.301Z,8.50
2019-02-17T03:16:55.404Z,8.50
2019-02-17T03:17:59.780Z,8.40
2019-02-17T03:19:03.891Z,8.40
2019-02-17T03:20:08.937Z,8.40
2019-02-17T03:21:13.444Z,8.40
2019-02-17T03:22:17.591Z,8.40
2019-02-17T03:23:21.695Z,8.40
2019-02-17T03:24:25.869Z,8.40
2019-02-17T03:25:30.027Z,8.40
2019-02-17T03:26:34.197Z,8.40
2019-02-17T03:27:38.290Z,8.40
2019-02-17T03:28:42.390Z,8.40
2019-02-17T03:29:46.724Z,8.40
2019-02-17T03:30:50.828Z,8.40
2019-02-17T03:31:55.029Z,8.40
2019-02-17T03:32:59.120Z,8.40
2019-02-17T03:34:03.279Z,8.40
2019-02-17T03:35:07.921Z,8.40
2019-02-17T03:36:12.302Z,8.40
2019-02-17T03:37:16.523Z,8.40
2019-02-17T03:38:20.650Z,8.40
2019-02-17T03:39:24.816Z,8.40
2019-02-17T03:40:28.913Z,8.40
2019-02-17T03:41:33.047Z,8.40
2019-02-17T03:42:37.192Z,8.50
2019-02-17T03:43:41.364Z,8.50
2019-02-17T03:44:45.442Z,8.50
2019-02-17T03:45:49.561Z,8.50
2019-02-17T03:46:53.750Z,8.40
2019-02-17T03:47:57.905Z,8.40
2019-02-17T03:49:02.043Z,8.40
2019-02-17T03:50:06.891Z,8.40
2019-02-17T03:51:12.004Z,8.40
2019-02-17T03:52:16.112Z,8.40
2019-02-17T03:53:20.284Z,8.40
2019-02-17T03:54:24.415Z,8.40
2019-02-17T03:55:28.531Z,8.40
2019-02-17T03:56:32.642Z,8.40
2019-02-17T03:57:36.878Z,8.50
2019-02-17T03:58:40.994Z,8.40
2019-02-17T03:59:45.148Z,8.50
2019-02-17T04:00:49.559Z,8.40
2019-02-17T04:01:53.638Z,8.40
2019-02-17T04:02:57.771Z,8.40
2019-02-17T04:04:01.909Z,8.40
2019-02-17T04:05:06.321Z,8.40
2019-02-17T04:06:10.951Z,8.40
2019-02-17T04:07:15.044Z,8.40
2019-02-17T04:08:19.169Z,8.40
2019-02-17T04:09:23.404Z,8.40
2019-02-17T04:10:27.587Z,8.40
2019-02-17T04:11:31.711Z,8.40
2019-02-17T04:12:35.797Z,8.40
2019-02-17T04:13:40.262Z,8.30
2019-02-17T04:14:44.359Z,8.30
2019-02-17T04:15:48.777Z,8.30
2019-02-17T04:16:52.866Z,8.30
2019-02-17T04:17:56.955Z,8.30
2019-02-17T04:19:01.115Z,8.30
2019-02-17T04:20:05.293Z,8.30
2019-02-17T04:21:10.492Z,8.30
2019-02-17T04:22:14.606Z,8.30
2019-02-17T04:23:18.723Z,8.30
2019-02-17T04:24:22.854Z,8.30
2019-02-17T04:25:26.951Z,8.30
2019-02-17T04:26:31.328Z,8.30
2019-02-17T04:27:35.531Z,8.30
2019-02-17T04:28:39.720Z,8.30
2019-02-17T04:29:43.875Z,8.30
2019-02-17T04:30:48.082Z,8.30
2019-02-17T04:31:52.210Z,8.20
2019-02-17T04:32:56.295Z,8.30
2019-02-17T04:34:00.384Z,8.30
2019-02-17T04:35:04.612Z,8.30
2019-02-17T04:36:09.188Z,8.20
2019-02-17T04:37:13.615Z,8.30
2019-02-17T04:38:17.876Z,8.30
2019-02-17T04:39:21.964Z,8.30
2019-02-17T04:40:26.078Z,8.20
2019-02-17T04:41:30.158Z,8.20
2019-02-17T04:42:34.259Z,8.20
2019-02-17T04:43:38.375Z,8.20
2019-02-17T04:44:42.511Z,8.20
2019-02-17T04:45:46.703Z,8.20
2019-02-17T04:46:50.788Z,8.20
2019-02-17T04:47:54.907Z,8.20
2019-02-17T04:48:58.988Z,8.20
2019-02-17T04:50:03.139Z,8.20
2019-02-17T04:51:07.252Z,8.20
2019-02-17T04:52:12.610Z,8.20
2019-02-17T04:53:16.723Z,8.20
2019-02-17T04:54:20.846Z,8.20
2019-02-17T04:55:24.972Z,8.20
2019-02-17T04:56:29.098Z,8.30
2019-02-17T04:57:33.247Z,8.30
2019-02-17T04:58:37.375Z,8.20
2019-02-17T04:59:41.471Z,8.20
2019-02-17T05:00:45.591Z,8.20
2019-02-17T05:01:49.683Z,8.20
2019-02-17T05:02:53.775Z,8.20
2019-02-17T05:03:57.865Z,8.10
2019-02-17T05:05:01.955Z,8.10
2019-02-17T05:06:06.078Z,8.10
2019-02-17T05:07:11.185Z,8.10
2019-02-17T05:08:15.286Z,8.10
2019-02-17T05:09:19.611Z,8.00
2019-02-17T05:10:23.713Z,8.00
2019-02-17T05:11:27.843Z,8.00
2019-02-17T05:12:31.960Z,8.00
2019-02-17T05:13:36.055Z,8.00
2019-02-17T05:14:40.157Z,8.00
2019-02-17T05:15:44.348Z,8.00
2019-02-17T05:16:48.452Z,8.00
2019-02-17T05:17:52.542Z,8.00
2019-02-17T05:18:56.624Z,8.00
2019-02-17T05:20:00.722Z,8.00
2019-02-17T05:21:04.858Z,8.00
2019-02-17T05:22:09.611Z,8.00
2019-02-17T05:23:13.759Z,8.10
2019-02-17T05:24:17.849Z,8.10
2019-02-17T05:25:22.002Z,8.10
2019-02-17T05:26:26.087Z,8.10
2019-02-17T05:27:30.216Z,8.10
2019-02-17T05:28:34.307Z,8.10
2019-02-17T05:29:38.419Z,8.00
2019-02-17T05:30:52.370Z,8.00
2019-02-17T05:31:48.371Z,8.00
2019-02-17T05:32:52.447Z,8.00
2019-02-17T05:33:56.545Z,8.00
2019-02-17T05:35:00.644Z,8.00
2019-02-17T05:36:04.737Z,7.90
2019-02-17T05:37:08.972Z,7.90
2019-02-17T05:38:13.118Z,7.90
2019-02-17T05:39:17.247Z,7.90
2019-02-17T05:40:21.411Z,7.90
2019-02-17T05:41:25.510Z,7.90
2019-02-17T05:42:29.613Z,7.90
2019-02-17T05:43:33.713Z,7.90
2019-02-17T05:44:38.090Z,7.90
2019-02-17T05:45:42.185Z,7.90
2019-02-17T05:46:46.388Z,7.90
2019-02-17T05:47:50.503Z,7.90
2019-02-17T05:48:54.664Z,7.90
2019-02-17T05:49:58.778Z,7.90
2019-02-17T05:51:02.850Z,7.90
2019-02-17T05:52:07.024Z,7.90
2019-02-17T05:53:11.531Z,7.90
2019-02-17T05:54:15.685Z,7.90
2019-02-17T05:55:19.808Z,7.90
2019-02-17T05:56:23.905Z,7.90
2019-02-17T05:57:28.011Z,7.90
2019-02-17T05:58:32.092Z,7.90
2019-02-17T05:59:36.175Z,7.90
2019-02-17T06:00:40.891Z,7.90
2019-02-17T06:01:44.994Z,7.90
2019-02-17T06:02:49.141Z,7.90
2019-02-17T06:03:53.282Z,7.90
2019-02-17T06:04:57.358Z,7.90
2019-02-17T06:06:01.453Z,7.90
2019-02-17T06:07:05.673Z,7.90
2019-02-17T06:08:09.948Z,7.90
2019-02-17T06:09:14.071Z,7.90
2019-02-17T06:10:18.168Z,7.90
2019-02-17T06:11:22.278Z,7.90
2019-02-17T06:12:26.403Z,7.90
2019-02-17T06:13:30.492Z,7.90
2019-02-17T06:14:34.611Z,7.80
2019-02-17T06:15:38.696Z,7.90
2019-02-17T06:16:42.796Z,7.90
2019-02-17T06:17:46.908Z,7.90
2019-02-17T06:18:50.993Z,7.90
2019-02-17T06:19:55.123Z,7.90
2019-02-17T06:20:59.256Z,7.90
2019-02-17T06:22:03.462Z,7.80
2019-02-17T06:23:08.112Z,7.80
2019-02-17T06:24:12.366Z,7.80
2019-02-17T06:25:16.476Z,7.80
2019-02-17T06:26:20.635Z,7.80
2019-02-17T06:27:25.175Z,7.80
2019-02-17T06:28:29.266Z,7.80
2019-02-17T06:29:33.627Z,7.80
2019-02-17T06:30:37.736Z,7.80
2019-02-17T06:31:42.436Z,7.80
2019-02-17T06:32:46.552Z,7.80
2019-02-17T06:33:50.661Z,7.80
2019-02-17T06:34:55.063Z,7.80
2019-02-17T06:35:59.155Z,7.80
2019-02-17T06:37:03.353Z,7.80
2019-02-17T06:38:07.528Z,7.80
2019-02-17T06:39:11.764Z,7.80
2019-02-17T06:40:15.871Z,7.80
2019-02-17T06:41:20.222Z,7.80
2019-02-17T06:42:24.335Z,7.80
2019-02-17T06:43:28.431Z,7.80
2019-02-17T06:44:32.598Z,7.70
2019-02-17T06:45:36.679Z,7.70
2019-02-17T06:46:45.177Z,7.70
2019-02-17T06:47:49.290Z,7.80
2019-02-17T06:48:53.410Z,7.70
2019-02-17T06:49:57.522Z,7.70
2019-02-17T06:51:01.609Z,7.70
2019-02-17T06:52:05.707Z,7.80
2019-02-17T06:53:10.138Z,7.80
2019-02-17T06:54:17.387Z,7.80
2019-02-17T06:55:46.185Z,7.80
2019-02-17T06:56:59.794Z,7.80
2019-02-17T06:58:03.908Z,7.80
2019-02-17T06:59:08.414Z,7.80
2019-02-17T07:00:17.631Z,7.80
2019-02-17T07:01:24.594Z,7.80
2019-02-17T07:02:27.678Z,7.80
2019-02-17T07:03:31.799Z,7.80
2019-02-17T07:04:54.910Z,7.80
2019-02-17T07:06:18.029Z,7.80
2019-02-17T07:07:22.223Z,7.80
2019-02-17T07:08:26.430Z,7.80
2019-02-17T07:09:30.634Z,7.80
2019-02-17T07:10:34.727Z,7.80
2019-02-17T07:11:38.936Z,7.80
2019-02-17T07:12:43.051Z,7.80
2019-02-17T07:13:47.150Z,7.80
2019-02-17T07:14:51.236Z,7.90
2019-02-17T07:15:55.593Z,7.90
2019-02-17T07:16:59.759Z,7.80
2019-02-17T07:18:03.890Z,7.80
2019-02-17T07:19:08.606Z,7.80
2019-02-17T07:20:12.692Z,7.80
2019-02-17T07:21:16.791Z,7.90
2019-02-17T07:22:20.938Z,7.90
2019-02-17T07:23:25.026Z,7.90
2019-02-17T07:24:29.156Z,7.90
2019-02-17T07:25:33.279Z,7.90
2019-02-17T07:26:37.427Z,7.90
2019-02-17T07:27:41.576Z,7.90
2019-02-17T07:28:45.676Z,7.90
2019-02-17T07:29:49.772Z,7.90
2019-02-17T07:30:54.120Z,7.90
2019-02-17T07:31:58.222Z,7.90
2019-02-17T07:33:02.345Z,8.00
2019-02-17T07:34:06.478Z,8.00
2019-02-17T07:35:10.727Z,8.00
2019-02-17T07:36:14.839Z,8.00
2019-02-17T07:37:19.478Z,8.00
2019-02-17T07:38:23.629Z,8.00
2019-02-17T07:39:27.727Z,8.00
2019-02-17T07:40:31.814Z,8.10
2019-02-17T07:41:35.909Z,8.10
2019-02-17T07:42:39.990Z,8.10
2019-02-17T07:43:44.103Z,8.00
2019-02-17T07:44:48.307Z,8.00
2019-02-17T07:45:52.383Z,8.00
2019-02-17T07:46:56.494Z,8.10
2019-02-17T07:48:00.610Z,8.10
2019-02-17T07:49:04.715Z,8.10
2019-02-17T07:50:09.399Z,8.10
2019-02-17T07:51:13.943Z,8.10
2019-02-17T07:52:18.133Z,8.20
2019-02-17T07:53:22.406Z,8.20
2019-02-17T07:54:26.661Z,8.20
2019-02-17T07:55:30.812Z,8.20
2019-02-17T07:56:34.915Z,8.20
2019-02-17T07:57:39.087Z,8.20
2019-02-17T07:58:43.271Z,8.20
2019-02-17T07:59:47.407Z,8.30
2019-02-17T08:00:51.576Z,8.30
2019-02-17T08:01:55.739Z,8.30
2019-02-17T08:02:59.911Z,8.30
2019-02-17T08:04:04.059Z,8.30
2019-02-17T08:05:08.629Z,8.40
2019-02-17T08:06:12.894Z,8.40
2019-02-17T08:07:17.146Z,8.40
2019-02-17T08:08:21.295Z,8.40
2019-02-17T08:09:25.525Z,8.50
2019-02-17T08:10:29.686Z,8.50
2019-02-17T08:11:33.862Z,8.50
2019-02-17T08:12:38.060Z,8.50
2019-02-17T08:13:42.425Z,8.50
2019-02-17T08:14:46.558Z,8.50
2019-02-17T08:15:50.743Z,8.60
2019-02-17T08:16:55.270Z,8.60
2019-02-17T08:17:59.535Z,8.60
2019-02-17T08:19:03.726Z,8.60
2019-02-17T08:20:09.417Z,8.60
2019-02-17T08:21:13.608Z,8.70
2019-02-17T08:22:17.719Z,8.70
2019-02-17T08:23:21.942Z,8.70
2019-02-17T08:24:26.264Z,8.70
2019-02-17T08:25:30.522Z,8.70
2019-02-17T08:26:34.739Z,8.70
2019-02-17T08:27:38.967Z,8.70
2019-02-17T08:28:43.166Z,8.70
2019-02-17T08:29:47.535Z,8.70
2019-02-17T08:30:51.986Z,8.70
2019-02-17T08:31:56.328Z,8.70
2019-02-17T08:33:00.494Z,8.70
2019-02-17T08:34:04.706Z,8.70
2019-02-17T08:35:09.386Z,8.80
2019-02-17T08:36:13.669Z,8.80
2019-02-17T08:37:17.786Z,8.80
2019-02-17T08:38:21.867Z,8.80
2019-02-17T08:39:25.959Z,8.80
2019-02-17T08:40:30.067Z,8.80
2019-02-17T08:41:34.172Z,8.80
2019-02-17T08:42:38.255Z,8.90
2019-02-17T08:43:42.359Z,8.90
2019-02-17T08:44:46.483Z,8.90
2019-02-17T08:45:50.599Z,8.90
2019-02-17T08:46:54.809Z,8.90
2019-02-17T08:47:58.878Z,8.90
2019-02-17T08:49:02.997Z,8.90
2019-02-17T08:50:08.737Z,9.00
2019-02-17T08:51:13.007Z,9.00
2019-02-17T08:52:17.155Z,9.00
2019-02-17T08:53:21.437Z,9.00
2019-02-17T08:54:25.675Z,9.00
2019-02-17T08:55:29.893Z,9.00
2019-02-17T08:56:34.040Z,9.00
2019-02-17T08:57:38.290Z,9.10
2019-02-17T08:58:42.474Z,9.10
2019-02-17T08:59:46.561Z,9.10
2019-02-17T09:00:50.656Z,9.10
2019-02-17T09:01:54.897Z,9.10
2019-02-17T09:03:00.311Z,9.10
2019-02-17T09:04:04.423Z,9.20
2019-02-17T09:05:08.934Z,9.20
2019-02-17T09:06:13.171Z,9.20
2019-02-17T09:07:17.310Z,9.20
2019-02-17T09:08:21.523Z,9.20
2019-02-17T09:09:25.636Z,9.20
2019-02-17T09:10:29.734Z,9.20
2019-02-17T09:11:33.831Z,9.30
2019-02-17T09:12:38.303Z,9.30
2019-02-17T09:13:42.427Z,9.30
2019-02-17T09:14:46.531Z,9.30
2019-02-17T09:15:50.915Z,9.30
2019-02-17T09:16:55.107Z,9.40
2019-02-17T09:17:59.215Z,9.40
2019-02-17T09:19:03.290Z,9.40
2019-02-17T09:20:08.466Z,9.40
2019-02-17T09:21:13.067Z,9.50
2019-02-17T09:22:17.187Z,9.50
2019-02-17T09:23:21.308Z,9.50
2019-02-17T09:24:25.420Z,9.50
2019-02-17T09:25:29.551Z,9.50
2019-02-17T09:26:33.689Z,9.50
2019-02-17T09:27:37.793Z,9.60
2019-02-17T09:28:41.896Z,9.60
2019-02-17T09:29:46.024Z,9.60
2019-02-17T09:30:50.151Z,9.60
2019-02-17T09:31:54.239Z,9.60
2019-02-17T09:32:58.354Z,9.60
2019-02-17T09:34:02.438Z,9.60
2019-02-17T09:35:06.576Z,9.60
2019-02-17T09:36:11.600Z,9.70
2019-02-17T09:37:15.718Z,9.70
2019-02-17T09:38:19.884Z,9.70
2019-02-17T09:39:24.012Z,9.70
2019-02-17T09:40:28.136Z,9.70
2019-02-17T09:41:32.346Z,9.70
2019-02-17T09:42:36.647Z,9.70
2019-02-17T09:43:40.855Z,9.70
2019-02-17T09:44:45.004Z,9.70
2019-02-17T09:45:49.098Z,9.70
2019-02-17T09:46:53.187Z,9.70
2019-02-17T09:47:57.327Z,9.70
2019-02-17T09:49:01.484Z,9.70
2019-02-17T09:50:06.438Z,9.70
2019-02-17T09:51:11.454Z,9.80
2019-02-17T09:52:15.526Z,9.80
2019-02-17T09:53:19.655Z,9.80
2019-02-17T09:54:23.828Z,9.80
2019-02-17T09:55:27.949Z,9.80
2019-02-17T09:56:32.031Z,9.80
2019-02-17T09:57:36.127Z,9.80
2019-02-17T09:58:40.257Z,9.80
2019-02-17T09:59:44.427Z,9.90
2019-02-17T10:00:49.069Z,9.90
2019-02-17T10:01:53.276Z,9.90
2019-02-17T10:02:57.424Z,9.90
2019-02-17T10:04:01.631Z,10.00
2019-02-17T10:05:05.877Z,10.00
2019-02-17T10:06:10.007Z,10.00
2019-02-17T10:07:14.095Z,10.00
2019-02-17T10:08:18.284Z,10.00
2019-02-17T10:09:22.414Z,10.10
2019-02-17T10:10:26.521Z,10.10
2019-02-17T10:11:30.823Z,10.10
2019-02-17T10:12:35.001Z,10.10
2019-02-17T10:13:39.223Z,10.10
2019-02-17T10:14:43.383Z,10.10
2019-02-17T10:15:47.507Z,10.20
2019-02-17T10:16:51.625Z,10.20
2019-02-17T10:17:55.859Z,10.20
2019-02-17T10:18:59.959Z,10.20
2019-02-17T10:20:04.446Z,10.20
2019-02-17T10:21:08.699Z,10.20
2019-02-17T10:22:12.878Z,10.20
2019-02-17T10:23:16.966Z,10.30
2019-02-17T10:24:21.119Z,10.30
2019-02-17T10:25:25.301Z,10.30
2019-02-17T10:26:29.404Z,10.30
2019-02-17T10:27:33.518Z,10.30
2019-02-17T10:28:42.471Z,10.30
2019-02-17T10:29:43.429Z,10.30
2019-02-17T10:30:47.619Z,10.40
2019-02-17T10:31:51.729Z,10.40
2019-02-17T10:32:55.837Z,10.40
2019-02-17T10:34:00.002Z,10.40
2019-02-17T10:35:04.100Z,10.40
2019-02-17T10:36:08.265Z,10.50
2019-02-17T10:37:12.448Z,10.50
2019-02-17T10:38:16.587Z,10.50
2019-02-17T10:39:20.762Z,10.50
2019-02-17T10:40:24.865Z,10.50
2019-02-17T10:41:28.960Z,10.50
2019-02-17T10:42:33.076Z,10.50
2019-02-17T10:43:37.228Z,10.50
2019-02-17T10:44:41.343Z,10.60
2019-02-17T10:45:45.448Z,10.60
2019-02-17T10:46:49.834Z,10.60
2019-02-17T10:47:53.975Z,10.60
2019-02-17T10:48:58.088Z,10.60
2019-02-17T10:50:02.210Z,10.60
2019-02-17T10:51:06.644Z,10.60
2019-02-17T10:52:11.698Z,10.70
2019-02-17T10:53:15.801Z,10.70
2019-02-17T10:54:19.962Z,10.70
2019-02-17T10:55:24.134Z,10.70
2019-02-17T10:56:28.251Z,10.70
2019-02-17T10:57:32.342Z,10.70
2019-02-17T10:58:36.469Z,10.80
2019-02-17T10:59:40.679Z,10.80
2019-02-17T11:00:44.819Z,10.80
2019-02-17T11:01:48.909Z,10.80
2019-02-17T11:02:53.018Z,10.80
2019-02-17T11:04:08.128Z,10.90
2019-02-17T11:05:12.335Z,10.90
2019-02-17T11:06:16.463Z,10.90
2019-02-17T11:07:20.604Z,10.90
2019-02-17T11:08:24.698Z,10.90
2019-02-17T11:09:28.824Z,11.00
2019-02-17T11:10:32.935Z,11.00
2019-02-17T11:11:37.050Z,11.00
2019-02-17T11:12:41.141Z,11.00
2019-02-17T11:13:45.247Z,11.00
2019-02-17T11:14:49.330Z,11.10
2019-02-17T11:15:53.464Z,11.10
2019-02-17T11:16:57.599Z,11.10
2019-02-17T11:18:01.708Z,11.10
2019-02-17T11:19:05.883Z,11.20
2019-02-17T11:20:10.167Z,11.20
2019-02-17T11:21:14.292Z,11.20
2019-02-17T11:22:23.083Z,11.30
2019-02-17T11:23:24.263Z,11.30
2019-02-17T11:24:28.376Z,11.30
2019-02-17T11:25:32.491Z,11.30
2019-02-17T11:26:36.606Z,11.30
2019-02-17T11:27:40.699Z,11.30
2019-02-17T11:28:44.796Z,11.40
2019-02-17T11:29:48.939Z,11.40
2019-02-17T11:30:53.057Z,11.40
2019-02-17T11:31:57.173Z,11.40
2019-02-17T11:33:01.254Z,11.40
2019-02-17T11:34:05.465Z,11.40
2019-02-17T11:35:10.198Z,11.50
2019-02-17T11:36:14.334Z,11.50
2019-02-17T11:37:18.535Z,11.50
2019-02-17T11:38:22.630Z,11.50
2019-02-17T11:39:26.801Z,11.60
2019-02-17T11:40:30.953Z,11.60
2019-02-17T11:41:35.152Z,11.60
2019-02-17T11:42:39.323Z,11.60
2019-02-17T11:43:43.421Z,11.70
2019-02-17T11:44:47.522Z,11.70
2019-02-17T11:45:51.623Z,11.70
2019-02-17T11:46:55.718Z,11.70
2019-02-17T11:48:00.099Z,11.80
2019-02-17T11:49:04.223Z,11.80
2019-02-17T11:50:08.954Z,11.80
2019-02-17T11:51:13.098Z,11.80
2019-02-17T11:52:17.237Z,11.90
2019-02-17T11:53:21.347Z,11.90
2019-02-17T11:54:25.610Z,11.90
2019-02-17T11:55:29.786Z,11.90
2019-02-17T11:56:33.875Z,11.90
2019-02-17T11:57:38.196Z,11.90
2019-02-17T11:58:42.303Z,11.90
2019-02-17T11:59:46.383Z,11.90
2019-02-17T12:00:50.606Z,12.00
2019-02-17T12:01:54.695Z,12.00
2019-02-17T12:03:07.642Z,12.00
2019-02-17T12:04:04.618Z,12.00
2019-02-17T12:05:09.659Z,12.00
2019-02-17T12:06:14.322Z,12.00
2019-02-17T12:07:18.427Z,12.10
2019-02-17T12:08:22.579Z,12.10
2019-02-17T12:09:26.667Z,12.20
2019-02-17T12:10:30.784Z,12.20
2019-02-17T12:11:34.887Z,12.20
2019-02-17T12:12:38.993Z,12.20
2019-02-17T12:13:43.143Z,12.20
2019-02-17T12:14:47.236Z,12.20
2019-02-17T12:15:51.522Z,12.20
2019-02-17T12:16:55.624Z,12.20
2019-02-17T12:17:59.736Z,12.30
2019-02-17T12:19:03.877Z,12.30
2019-02-17T12:20:47.059Z,12.30
2019-02-17T12:22:12.995Z,12.30
2019-02-17T12:23:44.984Z,12.30
2019-02-17T12:25:13.936Z,12.40
2019-02-17T12:26:52.430Z,12.40
2019-02-17T12:28:04.177Z,12.40
2019-02-17T12:29:30.372Z,12.50
2019-02-17T12:30:34.469Z,12.50
2019-02-17T12:31:38.932Z,12.50
2019-02-17T12:32:43.105Z,12.50
2019-02-17T12:33:47.241Z,12.40
2019-02-17T12:34:51.624Z,12.50
2019-02-17T12:35:55.721Z,12.50
2019-02-17T12:36:59.870Z,12.50
2019-02-17T12:38:03.963Z,12.60
2019-02-17T12:39:10.169Z,12.60
2019-02-17T12:40:14.371Z,12.60
2019-02-17T12:41:18.471Z,12.60
2019-02-17T12:42:22.587Z,12.70
2019-02-17T12:43:27.067Z,12.70
2019-02-17T12:44:31.214Z,12.60
2019-02-17T12:45:35.410Z,12.70
2019-02-17T12:46:39.514Z,12.70
2019-02-17T12:47:43.638Z,12.70
2019-02-17T12:48:48.088Z,12.70
2019-02-17T12:49:52.248Z,12.80
2019-02-17T12:50:56.358Z,12.80
2019-02-17T12:52:00.495Z,12.80
2019-02-17T12:53:04.607Z,12.80
2019-02-17T12:54:09.377Z,12.80
2019-02-17T12:55:13.606Z,12.80
2019-02-17T12:56:17.714Z,12.80
2019-02-17T12:57:21.809Z,12.80
2019-02-17T12:58:30.114Z,12.80
2019-02-17T12:59:32.031Z,12.80
2019-02-17T13:00:36.145Z,12.80
2019-02-17T13:01:40.259Z,12.80
2019-02-17T13:02:44.349Z,12.80
2019-02-17T13:03:48.439Z,12.90
2019-02-17T13:04:52.531Z,12.90
2019-02-17T13:05:56.639Z,12.90
2019-02-17T13:07:00.742Z,12.90
2019-02-17T13:08:04.856Z,12.90
2019-02-17T13:09:09.206Z,12.90
2019-02-17T13:10:13.387Z,12.90
2019-02-17T13:11:17.475Z,12.90
2019-02-17T13:12:21.603Z,13.00
2019-02-17T13:13:25.719Z,13.00
2019-02-17T13:14:29.817Z,13.00
2019-02-17T13:15:33.974Z,13.00
2019-02-17T13:16:38.140Z,13.00
2019-02-17T13:17:42.319Z,13.00
2019-02-17T13:18:46.404Z,13.00
2019-02-17T13:19:50.511Z,13.10
2019-02-17T13:20:54.611Z,13.10
2019-02-17T13:21:58.706Z,13.10
2019-02-17T13:23:02.802Z,13.10
2019-02-17T13:24:06.914Z,13.10
2019-02-17T13:25:11.538Z,13.10
2019-02-17T13:26:15.628Z,13.10
2019-02-17T13:27:19.741Z,13.10
2019-02-17T13:28:23.850Z,13.20
2019-02-17T13:29:28.034Z,13.10
2019-02-17T13:30:32.131Z,13.20
2019-02-17T13:31:36.223Z,13.20
2019-02-17T13:32:40.446Z,13.20
2019-02-17T13:33:44.616Z,13.20
2019-02-17T13:34:48.720Z,13.20
2019-02-17T13:35:52.818Z,13.20
2019-02-17T13:36:56.930Z,13.20
2019-02-17T13:38:01.355Z,13.30
2019-02-17T13:39:07.285Z,13.30
2019-02-17T13:40:12.194Z,13.30
2019-02-17T13:41:16.315Z,13.30
2019-02-17T13:42:20.431Z,13.30
2019-02-17T13:43:24.547Z,13.30
2019-02-17T13:44:28.645Z,13.30
2019-02-17T13:45:32.726Z,13.40
2019-02-17T13:46:36.814Z,13.40
2019-02-17T13:47:40.976Z,13.50
2019-02-17T13:48:45.069Z,13.50
2019-02-17T13:49:49.168Z,13.50
2019-02-17T13:50:53.619Z,13.50
2019-02-17T13:51:57.703Z,13.60
2019-02-17T13:53:11.337Z,13.60
2019-02-17T13:54:07.690Z,13.60
2019-02-17T13:55:11.924Z,13.70
2019-02-17T13:56:16.011Z,13.70
2019-02-17T13:57:20.378Z,13.70
2019-02-17T13:58:24.524Z,13.70
2019-02-17T13:59:28.663Z,13.70
2019-02-17T14:00:32.799Z,13.80
2019-02-17T14:01:36.910Z,13.80
2019-02-17T14:02:40.996Z,13.80
2019-02-17T14:03:48.960Z,13.90
2019-02-17T14:04:50.925Z,13.90
2019-02-17T14:05:55.028Z,13.90
2019-02-17T14:06:59.404Z,13.90
2019-02-17T14:08:03.566Z,13.90
2019-02-17T14:09:08.186Z,14.00
2019-02-17T14:10:12.628Z,14.00
2019-02-17T14:11:16.763Z,14.10